createdAt,value
2018-03-23T00:00:39.475Z,1.80
2018-03-23T00:03:06.905Z,1.90
2018-03-23T00:05:34.328Z,1.80
2018-03-23T00:08:02.515Z,1.80
2018-03-23T00:10:29.947Z,1.70
2018-03-23T00:12:57.371Z,1.80
2018-03-23T00:15:25.562Z,1.80
2018-03-23T00:17:52.991Z,1.80
2018-03-23T00:20:20.412Z,1.80
2018-03-23T00:22:48.604Z,1.80
2018-03-23T00:25:16.032Z,1.80
2018-03-23T00:27:43.456Z,1.80
2018-03-23T00:30:11.640Z,1.80
2018-03-23T00:32:39.064Z,1.80
2018-03-23T00:35:06.496Z,1.80
2018-03-23T00:37:34.725Z,1.80
2018-03-23T00:40:02.156Z,1.80
2018-03-23T00:42:29.587Z,1.90
2018-03-23T00:44:57.024Z,1.90
2018-03-23T00:47:24.445Z,1.80
2018-03-23T00:49:51.868Z,1.80
2018-03-23T00:52:19.298Z,1.70
2018-03-23T00:54:46.717Z,1.70
2018-03-23T00:57:14.151Z,1.70
2018-03-23T00:59:41.596Z,1.60
2018-03-23T01:02:09.029Z,1.70
2018-03-23T01:04:36.444Z,1.70
2018-03-23T01:07:03.864Z,1.60
2018-03-23T01:09:31.356Z,1.60
2018-03-23T01:11:58.779Z,1.60
2018-03-23T01:14:26.202Z,1.60
2018-03-23T01:16:53.632Z,1.60
2018-03-23T01:19:21.051Z,1.60
2018-03-23T01:21:49.272Z,1.60
2018-03-23T01:24:16.708Z,1.60
2018-03-23T01:26:44.135Z,1.70
2018-03-23T01:29:11.556Z,1.60
2018-03-23T01:31:38.979Z,1.60
2018-03-23T01:34:06.399Z,1.70
2018-03-23T01:36:33.920Z,1.60
2018-03-23T01:39:01.347Z,1.70
2018-03-23T01:41:28.804Z,1.70
2018-03-23T01:43:56.216Z,1.70
2018-03-23T01:46:23.656Z,1.70
2018-03-23T01:48:51.093Z,1.70
2018-03-23T01:51:18.516Z,1.80
2018-03-23T01:53:46.714Z,1.90
2018-03-23T01:56:14.136Z,1.90
2018-03-23T01:58:41.576Z,1.90
2018-03-23T02:01:09.003Z,1.90
2018-03-23T02:03:36.423Z,1.90
2018-03-23T02:06:04.620Z,1.90
2018-03-23T02:08:32.037Z,1.90
2018-03-23T02:11:00.238Z,1.90
2018-03-23T02:13:27.668Z,1.90
2018-03-23T02:15:55.095Z,1.90
2018-03-23T02:18:22.515Z,1.90
2018-03-23T02:20:50.712Z,2.00
2018-03-23T02:23:18.139Z,1.90
2018-03-23T02:25:45.565Z,1.80
2018-03-23T02:28:13.752Z,1.90
2018-03-23T02:30:45.083Z,1.80
2018-03-23T02:33:12.533Z,1.90
2018-03-23T02:35:39.992Z,1.80
2018-03-23T02:38:07.416Z,1.90
2018-03-23T02:40:34.859Z,1.90
2018-03-23T02:43:02.296Z,1.90
2018-03-23T02:45:29.777Z,1.80
2018-03-23T02:47:57.196Z,1.80
2018-03-23T02:50:24.620Z,1.70
2018-03-23T02:52:52.073Z,1.70
2018-03-23T02:55:19.489Z,1.80
2018-03-23T02:57:46.924Z,1.80
2018-03-23T03:00:14.349Z,1.80
2018-03-23T03:02:41.860Z,1.90
2018-03-23T03:05:09.300Z,1.80
2018-03-23T03:07:36.753Z,1.90
2018-03-23T03:10:04.177Z,1.80
2018-03-23T03:12:31.609Z,1.80
2018-03-23T03:14:59.036Z,1.70
2018-03-23T03:17:26.462Z,1.70
2018-03-23T03:19:53.880Z,1.90
2018-03-23T03:22:22.079Z,2.00
2018-03-23T03:24:49.510Z,1.90
2018-03-23T03:27:16.924Z,2.00
2018-03-23T03:29:45.144Z,2.10
2018-03-23T03:32:12.572Z,2.10
2018-03-23T03:34:39.999Z,2.20
2018-03-23T03:37:07.431Z,2.20
2018-03-23T03:39:34.855Z,2.10
2018-03-23T03:42:03.039Z,2.10
2018-03-23T03:44:30.476Z,2.10
2018-03-23T03:46:57.931Z,2.20
2018-03-23T03:49:25.359Z,2.20
2018-03-23T03:51:52.775Z,2.20
2018-03-23T03:54:20.972Z,2.20
2018-03-23T03:56:48.396Z,2.20
2018-03-23T03:59:15.816Z,2.30
2018-03-23T04:01:44.024Z,2.20
2018-03-23T04:04:11.464Z,2.20
2018-03-23T04:06:38.888Z,2.20
2018-03-23T04:09:06.308Z,2.20
2018-03-23T04:11:34.512Z,2.10
2018-03-23T04:14:01.932Z,2.10
2018-03-23T04:16:29.354Z,2.20
2018-03-23T04:18:57.555Z,2.10
2018-03-23T04:21:25.003Z,2.10
2018-03-23T04:23:52.418Z,2.10
2018-03-23T04:26:19.852Z,2.10
2018-03-23T04:28:47.292Z,2.20
2018-03-23T04:31:14.719Z,2.20
2018-03-23T04:33:42.147Z,2.10
2018-03-23T04:36:10.357Z,2.30
2018-03-23T04:38:37.804Z,2.20
2018-03-23T04:41:05.232Z,2.20
2018-03-23T04:43:32.666Z,2.20
2018-03-23T04:46:00.132Z,2.20
2018-03-23T04:48:27.560Z,2.20
2018-03-23T04:50:54.967Z,2.10
2018-03-23T04:53:23.151Z,2.10
2018-03-23T04:55:50.592Z,2.10
2018-03-23T04:58:18.028Z,2.20
2018-03-23T05:00:45.455Z,2.20
2018-03-23T05:03:12.891Z,2.20
2018-03-23T05:05:41.092Z,2.30
2018-03-23T05:08:08.521Z,2.30
2018-03-23T05:10:35.975Z,2.30
2018-03-23T05:13:03.396Z,2.30
2018-03-23T05:15:30.817Z,2.30
2018-03-23T05:17:59.008Z,2.50
2018-03-23T05:20:26.432Z,2.50
2018-03-23T05:22:53.872Z,2.60
2018-03-23T05:25:21.304Z,2.50
2018-03-23T05:27:49.627Z,2.50
2018-03-23T05:30:17.055Z,2.40
2018-03-23T05:32:44.476Z,2.30
2018-03-23T05:35:11.911Z,2.20
2018-03-23T05:37:39.332Z,2.20
2018-03-23T05:40:07.527Z,2.20
2018-03-23T05:42:34.940Z,2.20
2018-03-23T05:45:02.384Z,2.30
2018-03-23T05:47:29.804Z,2.30
2018-03-23T05:49:57.994Z,2.30
2018-03-23T05:52:25.425Z,2.30
2018-03-23T05:54:52.855Z,2.40
2018-03-23T05:57:20.276Z,2.30
2018-03-23T05:59:48.460Z,2.30
2018-03-23T06:02:15.889Z,2.30
2018-03-23T06:04:44.072Z,2.50
2018-03-23T06:07:11.497Z,2.50
2018-03-23T06:09:38.916Z,2.50
2018-03-23T06:12:06.344Z,2.50
2018-03-23T06:14:33.759Z,2.60
2018-03-23T06:17:01.192Z,2.60
2018-03-23T06:19:28.618Z,2.70
2018-03-23T06:21:56.040Z,2.70
2018-03-23T06:24:24.229Z,2.80
2018-03-23T06:26:51.660Z,2.70
2018-03-23T06:29:19.088Z,2.80
2018-03-23T06:31:46.507Z,2.80
2018-03-23T06:34:14.741Z,3.00
2018-03-23T06:36:42.167Z,3.00
2018-03-23T06:39:09.590Z,3.10
2018-03-23T06:41:37.025Z,3.10
2018-03-23T06:44:04.456Z,3.20
2018-03-23T06:46:32.649Z,3.20
2018-03-23T06:49:00.081Z,3.10
2018-03-23T06:51:27.500Z,3.20
2018-03-23T06:53:54.923Z,3.20
2018-03-23T06:56:23.111Z,3.40
2018-03-23T06:58:50.540Z,3.40
2018-03-23T07:01:17.969Z,3.40
2018-03-23T07:03:46.163Z,3.50
2018-03-23T07:06:13.583Z,3.50
2018-03-23T07:08:41.058Z,3.40
2018-03-23T07:11:08.527Z,3.50
2018-03-23T07:13:36.728Z,3.60
2018-03-23T07:16:04.163Z,3.60
2018-03-23T07:18:32.348Z,3.70
2018-03-23T07:20:59.772Z,3.70
2018-03-23T07:23:27.244Z,3.60
2018-03-23T07:25:54.676Z,3.70
2018-03-23T07:28:22.120Z,3.80
2018-03-23T07:30:49.540Z,3.90
2018-03-23T07:33:16.964Z,4.00
2018-03-23T07:35:45.152Z,4.20
2018-03-23T07:38:12.576Z,4.20
2018-03-23T07:40:40.049Z,4.20
2018-03-23T07:43:07.472Z,4.30
2018-03-23T07:45:34.892Z,4.40
2018-03-23T07:48:03.083Z,4.20
2018-03-23T07:50:30.516Z,4.20
2018-03-23T07:52:57.943Z,4.30
2018-03-23T07:55:25.359Z,4.30
2018-03-23T07:57:53.580Z,4.50
2018-03-23T08:00:20.991Z,4.50
2018-03-23T08:02:48.425Z,4.70
2018-03-23T08:05:15.904Z,4.90
2018-03-23T08:07:43.324Z,5.10
2018-03-23T08:10:10.753Z,5.10
2018-03-23T08:12:38.181Z,5.20
2018-03-23T08:15:06.388Z,5.40
2018-03-23T08:17:33.803Z,5.40
2018-03-23T08:20:01.227Z,5.30
2018-03-23T08:22:29.425Z,5.20
2018-03-23T08:24:56.853Z,5.20
2018-03-23T08:27:24.271Z,5.30
2018-03-23T08:29:51.692Z,5.40
2018-03-23T08:32:19.900Z,5.30
2018-03-23T08:34:48.079Z,5.40
2018-03-23T08:37:15.504Z,5.30
2018-03-23T08:39:42.948Z,5.30
2018-03-23T08:42:10.363Z,5.20
2018-03-23T08:44:37.808Z,5.20
2018-03-23T08:47:05.979Z,5.10
2018-03-23T08:49:33.425Z,5.10
2018-03-23T08:52:00.839Z,5.10
2018-03-23T08:54:28.424Z,5.10
2018-03-23T08:56:55.843Z,5.00
2018-03-23T08:59:23.276Z,5.10
2018-03-23T09:01:50.692Z,5.20
2018-03-23T09:04:18.892Z,5.10
2018-03-23T09:06:46.324Z,5.10
2018-03-23T09:09:13.743Z,4.90
2018-03-23T09:11:41.159Z,4.90
2018-03-23T09:14:08.600Z,4.80
2018-03-23T09:16:36.068Z,4.80
2018-03-23T09:19:03.429Z,4.80
2018-03-23T09:21:30.855Z,4.80
2018-03-23T09:23:58.270Z,4.90
2018-03-23T09:26:25.690Z,4.80
2018-03-23T09:28:53.104Z,4.80
2018-03-23T09:31:20.531Z,4.90
2018-03-23T09:33:47.964Z,4.90
2018-03-23T09:36:15.372Z,5.00
2018-03-23T09:38:42.808Z,4.90
2018-03-23T09:41:11.744Z,4.90
2018-03-23T09:43:39.197Z,4.90
2018-03-23T09:46:06.620Z,4.90
2018-03-23T09:48:34.046Z,4.80
2018-03-23T09:51:01.463Z,4.70
2018-03-23T09:53:29.672Z,4.80
2018-03-23T09:55:57.092Z,4.70
2018-03-23T09:58:24.524Z,4.80
2018-03-23T10:00:52.720Z,4.70
2018-03-23T10:03:20.150Z,4.70
2018-03-23T10:05:47.572Z,4.70
2018-03-23T10:08:14.992Z,4.70
2018-03-23T10:10:43.189Z,4.70
2018-03-23T10:13:10.604Z,4.60
2018-03-23T10:15:38.028Z,4.80
2018-03-23T10:18:05.448Z,4.70
2018-03-23T10:20:32.880Z,4.70
2018-03-23T10:23:00.315Z,4.70
2018-03-23T10:25:27.742Z,4.80
2018-03-23T10:27:55.172Z,5.10
2018-03-23T10:30:22.679Z,5.50
2018-03-23T10:32:50.099Z,5.80
2018-03-23T10:35:17.524Z,5.90
2018-03-23T10:37:44.957Z,6.10
2018-03-23T10:40:12.372Z,6.10
2018-03-23T10:42:39.812Z,6.30
2018-03-23T10:45:07.244Z,6.10
2018-03-23T10:47:35.552Z,5.90
2018-03-23T10:50:02.992Z,5.90
2018-03-23T10:52:30.415Z,5.80
2018-03-23T10:54:57.827Z,5.80
2018-03-23T10:57:26.025Z,5.40
2018-03-23T10:59:53.457Z,5.40
2018-03-23T11:05:23.785Z,5.20
2018-03-23T11:07:51.196Z,5.30
2018-03-23T11:10:18.622Z,5.20
2018-03-23T11:12:46.808Z,4.90
2018-03-23T11:15:14.234Z,4.80
2018-03-23T11:17:42.431Z,4.70
2018-03-23T11:20:09.859Z,4.70
2018-03-23T11:22:37.284Z,4.80
2018-03-23T11:25:04.713Z,4.80
2018-03-23T11:27:32.120Z,4.90
2018-03-23T11:29:59.535Z,4.90
2018-03-23T11:32:26.972Z,5.00
2018-03-23T11:34:54.405Z,5.30
2018-03-23T11:37:21.819Z,5.60
2018-03-23T11:39:49.256Z,5.70
2018-03-23T11:42:16.704Z,6.00
2018-03-23T11:44:44.203Z,6.20
2018-03-23T11:47:11.613Z,6.30
2018-03-23T11:49:39.023Z,6.50
2018-03-23T11:52:06.499Z,6.70
2018-03-23T11:54:33.908Z,6.60
2018-03-23T11:57:01.323Z,6.60
2018-03-23T11:59:28.740Z,6.80
2018-03-23T12:01:56.160Z,7.10
2018-03-23T12:04:23.615Z,7.20
2018-03-23T12:06:51.036Z,7.10
2018-03-23T12:09:18.497Z,6.90
2018-03-23T12:11:45.920Z,6.70
2018-03-23T12:14:13.394Z,6.90
2018-03-23T12:16:40.756Z,7.20
2018-03-23T12:19:08.979Z,7.70
2018-03-23T12:21:36.431Z,7.70
2018-03-23T12:24:03.824Z,8.00
2018-03-23T12:26:31.249Z,8.10
2018-03-23T12:28:59.439Z,7.70
2018-03-23T12:31:26.916Z,7.70
2018-03-23T12:33:54.328Z,7.60
2018-03-23T12:36:21.750Z,7.90
2018-03-23T12:38:49.180Z,8.40
2018-03-23T12:41:17.375Z,8.40
2018-03-23T12:43:44.784Z,8.40
2018-03-23T12:46:12.211Z,8.90
2018-03-23T12:48:40.420Z,9.00
2018-03-23T12:51:07.831Z,8.90
2018-03-23T12:53:35.259Z,8.90
2018-03-23T12:56:03.461Z,8.30
2018-03-23T12:58:30.876Z,8.30
2018-03-23T13:00:58.300Z,8.00
2018-03-23T13:03:26.493Z,7.90
2018-03-23T13:05:53.907Z,7.90
2018-03-23T13:08:22.110Z,7.90
2018-03-23T13:10:49.536Z,7.80
2018-03-23T13:13:16.961Z,7.60
2018-03-23T13:15:44.385Z,7.40
2018-03-23T13:18:12.594Z,7.40
2018-03-23T13:20:40.013Z,7.40
2018-03-23T13:23:07.573Z,7.80
2018-03-23T13:25:35.006Z,7.80
2018-03-23T13:28:02.440Z,8.10
2018-03-23T13:30:29.861Z,8.30
2018-03-23T13:32:57.290Z,8.10
2018-03-23T13:35:25.476Z,8.30
2018-03-23T13:37:52.904Z,8.30
2018-03-23T13:40:20.396Z,8.30
2018-03-23T13:42:47.811Z,8.30
2018-03-23T13:45:15.231Z,8.40
2018-03-23T13:47:42.647Z,8.30
2018-03-23T13:50:10.912Z,8.50
2018-03-23T13:52:38.307Z,8.40
2018-03-23T13:55:05.747Z,8.60
2018-03-23T13:57:33.208Z,8.30
2018-03-23T14:00:00.624Z,8.30
2018-03-23T14:02:28.067Z,8.80
2018-03-23T14:04:56.212Z,8.70
2018-03-23T14:07:23.640Z,8.70
2018-03-23T14:09:51.063Z,8.80
2018-03-23T14:12:19.257Z,7.80
2018-03-23T14:14:46.682Z,7.80
2018-03-23T14:17:14.101Z,7.90
2018-03-23T14:19:42.284Z,8.20
2018-03-23T14:22:09.704Z,8.20
2018-03-23T14:24:37.888Z,8.10
2018-03-23T14:27:05.300Z,8.10
2018-03-23T14:29:33.533Z,8.30
2018-03-23T14:32:00.960Z,8.30
2018-03-23T14:34:28.380Z,8.60
2018-03-23T14:36:55.797Z,8.70
2018-03-23T14:39:23.228Z,9.00
2018-03-23T14:41:51.443Z,9.30
2018-03-23T14:44:18.877Z,9.30
2018-03-23T14:46:46.320Z,9.00
2018-03-23T14:49:13.727Z,8.50
2018-03-23T14:51:41.148Z,8.50
2018-03-23T14:54:09.336Z,8.90
2018-03-23T14:56:36.752Z,8.90
2018-03-23T14:59:10.647Z,8.90
2018-03-23T15:01:38.021Z,9.00
2018-03-23T15:04:05.589Z,8.80
2018-03-23T15:06:33.013Z,8.50
2018-03-23T15:09:00.427Z,8.60
2018-03-23T15:11:27.864Z,8.70
2018-03-23T15:16:55.617Z,8.80
2018-03-23T15:19:23.798Z,8.70
2018-03-23T15:21:51.212Z,8.70
2018-03-23T15:24:19.395Z,8.40
2018-03-23T15:26:46.815Z,8.40
2018-03-23T15:29:15.003Z,8.70
2018-03-23T15:31:42.456Z,8.70
2018-03-23T15:34:09.873Z,8.70
2018-03-23T15:36:37.332Z,8.30
2018-03-23T15:39:04.744Z,8.20
2018-03-23T15:41:32.947Z,8.50
2018-03-23T15:44:00.376Z,8.40
2018-03-23T15:46:27.802Z,8.60
2018-03-23T15:48:55.224Z,8.50
2018-03-23T15:51:22.651Z,8.60
2018-03-23T15:53:50.840Z,9.10
2018-03-23T15:56:18.272Z,9.10
2018-03-23T15:58:46.449Z,8.40
2018-03-23T16:01:13.869Z,8.40
2018-03-23T16:03:42.076Z,8.30
2018-03-23T16:06:09.515Z,8.30
2018-03-23T16:08:36.944Z,8.30
2018-03-23T16:11:04.376Z,8.00
2018-03-23T16:13:31.800Z,8.00
2018-03-23T16:15:59.209Z,7.90
2018-03-23T16:18:26.633Z,7.60
2018-03-23T16:20:54.081Z,7.40
2018-03-23T16:23:21.488Z,7.50
2018-03-23T16:25:48.909Z,7.60
2018-03-23T16:28:16.340Z,7.60
2018-03-23T16:30:44.541Z,7.50
2018-03-23T16:33:11.956Z,7.50
2018-03-23T16:35:39.381Z,7.60
2018-03-23T16:38:07.552Z,7.20
2018-03-23T16:40:34.975Z,7.20
2018-03-23T16:43:03.180Z,7.00
2018-03-23T16:45:30.627Z,7.00
2018-03-23T16:47:58.056Z,6.90
2018-03-23T16:50:25.472Z,6.80
2018-03-23T16:52:52.911Z,6.80
2018-03-23T16:55:20.332Z,6.70
2018-03-23T16:57:48.528Z,6.60
2018-03-23T17:00:15.948Z,6.60
2018-03-23T17:02:44.136Z,6.50
2018-03-23T17:05:11.560Z,6.50
2018-03-23T17:07:38.976Z,6.40
2018-03-23T17:10:07.168Z,6.50
2018-03-23T17:12:34.610Z,6.50
2018-03-23T17:15:02.033Z,6.50
2018-03-23T17:17:30.215Z,6.40
2018-03-23T17:19:57.645Z,6.30
2018-03-23T17:22:25.832Z,6.20
2018-03-23T17:24:53.252Z,6.10
2018-03-23T17:27:20.674Z,6.20
2018-03-23T17:29:48.104Z,6.10
2018-03-23T17:32:16.320Z,6.20
2018-03-23T17:34:43.767Z,6.20
2018-03-23T17:37:11.195Z,6.20
2018-03-23T17:39:38.649Z,6.10
2018-03-23T17:42:06.100Z,6.10
2018-03-23T17:44:33.539Z,5.90
2018-03-23T17:47:00.949Z,5.90
2018-03-23T17:49:28.365Z,5.90
2018-03-23T17:51:56.548Z,5.90
2018-03-23T17:54:23.967Z,5.80
2018-03-23T17:56:51.408Z,5.80
2018-03-23T17:59:18.821Z,5.80
2018-03-23T18:01:46.244Z,5.80
2018-03-23T18:04:13.681Z,5.70
2018-03-23T18:06:41.132Z,5.50
2018-03-23T18:09:12.916Z,5.50
2018-03-23T18:11:40.368Z,5.50
2018-03-23T18:14:08.566Z,5.50
2018-03-23T18:16:35.996Z,5.40
2018-03-23T18:19:03.427Z,5.40
2018-03-23T18:21:30.855Z,5.40
2018-03-23T18:23:58.301Z,5.40
2018-03-23T18:26:25.724Z,5.40
2018-03-23T18:28:53.144Z,5.50
2018-03-23T18:31:20.582Z,5.50
2018-03-23T18:33:48.013Z,5.40
2018-03-23T18:36:16.947Z,5.40
2018-03-23T18:38:44.372Z,5.40
2018-03-23T18:41:11.795Z,5.40
2018-03-23T18:43:40.003Z,5.30
2018-03-23T18:46:07.456Z,5.30
2018-03-23T18:48:34.892Z,5.30
2018-03-23T18:51:02.329Z,5.20
2018-03-23T18:53:29.774Z,5.20
2018-03-23T18:55:57.204Z,5.20
2018-03-23T18:58:24.665Z,5.30
2018-03-23T19:00:52.089Z,5.30
2018-03-23T19:03:19.524Z,5.40
2018-03-23T19:05:46.956Z,5.40
2018-03-23T19:08:14.375Z,5.30
2018-03-23T19:10:42.568Z,5.30
2018-03-23T19:13:09.996Z,5.30
2018-03-23T19:15:37.513Z,5.20
2018-03-23T19:18:06.031Z,5.30
2018-03-23T19:20:33.472Z,5.30
2018-03-23T19:23:00.913Z,5.30
2018-03-23T19:25:28.348Z,5.40
2018-03-23T19:27:55.788Z,5.40
2018-03-23T19:30:23.268Z,5.40
2018-03-23T19:32:51.497Z,5.20
2018-03-23T19:35:18.908Z,5.20
2018-03-23T19:37:46.341Z,5.20
2018-03-23T19:40:14.520Z,5.20
2018-03-23T19:42:41.956Z,5.20
2018-03-23T19:45:09.421Z,5.30
2018-03-23T19:47:36.819Z,5.40
2018-03-23T19:50:05.008Z,5.40
2018-03-23T19:52:32.454Z,5.40
2018-03-23T19:54:59.934Z,5.30
2018-03-23T19:57:27.348Z,5.20
2018-03-23T19:59:54.780Z,5.20
2018-03-23T20:02:22.229Z,5.20
2018-03-23T20:04:49.664Z,5.20
2018-03-23T20:07:17.094Z,5.10
2018-03-23T20:09:44.514Z,5.10
2018-03-23T20:12:12.710Z,5.00
2018-03-23T20:14:40.148Z,5.00
2018-03-23T20:17:07.576Z,5.00
2018-03-23T20:19:35.054Z,5.10
2018-03-23T20:22:02.479Z,5.00
2018-03-23T20:24:29.913Z,5.00
2018-03-23T20:27:03.100Z,5.00
2018-03-23T20:29:30.541Z,5.00
2018-03-23T20:32:03.548Z,5.00
2018-03-23T20:34:30.992Z,5.00
2018-03-23T20:36:58.423Z,5.00
2018-03-23T20:39:27.370Z,5.00
2018-03-23T20:41:54.796Z,5.00
2018-03-23T20:44:22.216Z,5.00
2018-03-23T20:46:49.636Z,5.00
2018-03-23T20:49:17.832Z,5.00
2018-03-23T20:51:45.248Z,5.00
2018-03-23T20:54:13.448Z,5.00
2018-03-23T20:56:40.875Z,4.90
2018-03-23T20:59:08.296Z,4.90
2018-03-23T21:01:36.511Z,4.90
2018-03-23T21:04:03.931Z,5.00
2018-03-23T21:06:31.351Z,5.10
2018-03-23T21:08:58.779Z,5.00
2018-03-23T21:11:27.001Z,4.90
2018-03-23T21:13:54.433Z,4.90
2018-03-23T21:16:21.856Z,4.90
2018-03-23T21:18:49.295Z,4.90
2018-03-23T21:21:16.750Z,4.80
2018-03-23T21:23:44.185Z,4.80
2018-03-23T21:26:11.657Z,4.90
2018-03-23T21:28:39.107Z,4.90
2018-03-23T21:31:07.328Z,4.90
2018-03-23T21:33:34.743Z,4.90
2018-03-23T21:36:02.175Z,4.80
2018-03-23T21:38:29.623Z,4.90
2018-03-23T21:40:57.048Z,4.90
2018-03-23T21:43:25.236Z,5.00
2018-03-23T21:45:52.664Z,4.90
2018-03-23T21:48:20.087Z,4.80
2018-03-23T21:50:48.956Z,4.70
2018-03-23T21:53:17.144Z,4.70
2018-03-23T21:55:44.584Z,4.70
2018-03-23T21:58:12.064Z,4.70
2018-03-23T22:00:39.500Z,4.70
2018-03-23T22:03:06.927Z,4.70
2018-03-23T22:05:34.348Z,4.60
2018-03-23T22:08:01.768Z,4.50
2018-03-23T22:10:29.971Z,4.50
2018-03-23T22:12:57.388Z,4.50
2018-03-23T22:15:24.828Z,4.50
2018-03-23T22:17:52.268Z,4.60
2018-03-23T22:20:19.708Z,4.60
2018-03-23T22:22:47.136Z,4.60
2018-03-23T22:25:15.344Z,4.50
2018-03-23T22:27:42.803Z,4.50
2018-03-23T22:30:10.210Z,4.40
2018-03-23T22:32:37.655Z,4.40
2018-03-23T22:35:05.121Z,4.40
2018-03-23T22:37:32.567Z,4.40
2018-03-23T22:40:00.011Z,4.40
2018-03-23T22:42:27.443Z,4.40
2018-03-23T22:44:54.859Z,4.40
2018-03-23T22:47:22.292Z,4.40
2018-03-23T22:49:49.736Z,4.30
2018-03-23T22:52:17.931Z,4.20
2018-03-23T22:54:45.364Z,4.20
2018-03-23T22:57:12.798Z,4.20
2018-03-23T22:59:40.239Z,4.20
2018-03-23T23:02:07.669Z,4.20
2018-03-23T23:04:35.100Z,4.20
2018-03-23T23:07:02.543Z,4.20
2018-03-23T23:09:30.736Z,4.10
2018-03-23T23:11:58.166Z,4.10
2018-03-23T23:14:25.619Z,4.20
2018-03-23T23:16:53.015Z,4.20
2018-03-23T23:19:21.224Z,4.20
2018-03-23T23:21:48.664Z,4.20
2018-03-23T23:24:16.104Z,4.20
2018-03-23T23:26:43.532Z,4.20
2018-03-23T23:29:10.992Z,4.20
2018-03-23T23:31:38.420Z,4.10
2018-03-23T23:34:05.849Z,4.10
2018-03-23T23:36:33.282Z,4.10
2018-03-23T23:39:00.720Z,4.00
2018-03-23T23:41:28.163Z,4.00
2018-03-23T23:43:55.580Z,3.90
2018-03-23T23:46:23.771Z,3.90
2018-03-23T23:48:51.216Z,3.80
2018-03-23T23:51:18.624Z,3.80
2018-03-23T23:53:46.811Z,3.70
2018-03-23T23:56:14.251Z,3.60
2018-03-23T23:58:41.705Z,3.50
